createdAt,value
2019-02-21T00:01:02.854Z,23.33
2019-02-21T00:03:31.690Z,24.20
2019-02-21T00:06:00.632Z,22.20
2019-02-21T00:08:29.380Z,24.43
2019-02-21T00:10:58.560Z,25.17
2019-02-21T00:13:27.381Z,25.27
2019-02-21T00:15:56.132Z,25.77
2019-02-21T00:18:31.838Z,23.97
2019-02-21T00:21:00.619Z,24.10
2019-02-21T00:23:29.758Z,25.30
2019-02-21T00:25:59.423Z,25.13
2019-02-21T00:28:28.244Z,25.97
2019-02-21T00:30:57.076Z,24.70
2019-02-21T00:33:26.201Z,23.53
2019-02-21T00:35:54.983Z,23.73
2019-02-21T00:38:23.959Z,24.43
2019-02-21T00:40:53.367Z,24.43
2019-02-21T00:43:22.233Z,25.30
2019-02-21T00:45:51.305Z,23.00
2019-02-21T00:48:20.151Z,23.30
2019-02-21T00:50:48.902Z,21.63
2019-02-21T00:53:17.697Z,24.60
2019-02-21T00:55:47.032Z,22.90
2019-02-21T00:58:15.938Z,24.50
2019-02-21T01:00:46.750Z,22.33
2019-02-21T01:03:16.130Z,24.60
2019-02-21T01:05:45.110Z,24.03
2019-02-21T01:08:13.854Z,22.90
2019-02-21T01:10:42.661Z,23.27
2019-02-21T01:13:11.756Z,25.27
2019-02-21T01:15:41.034Z,24.07
2019-02-21T01:18:10.197Z,25.07
2019-02-21T01:20:39.013Z,24.97
2019-02-21T01:23:08.148Z,23.80
2019-02-21T01:25:37.015Z,24.43
2019-02-21T01:28:05.883Z,24.10
2019-02-21T01:30:34.816Z,22.13
2019-02-21T01:33:03.655Z,23.10
2019-02-21T01:35:32.455Z,22.33
2019-02-21T01:38:01.378Z,22.70
2019-02-21T01:40:30.596Z,20.77
2019-02-21T01:42:59.815Z,19.90
2019-02-21T01:45:28.624Z,21.30
2019-02-21T01:47:57.405Z,21.87
2019-02-21T01:50:26.595Z,22.45
2019-02-21T01:52:55.354Z,22.42
2019-02-21T01:55:24.156Z,22.40
2019-02-21T01:57:53.275Z,21.15
2019-02-21T02:00:22.095Z,21.37
2019-02-21T02:02:51.263Z,21.33
2019-02-21T02:05:20.112Z,21.73
2019-02-21T02:07:49.222Z,20.23
2019-02-21T02:10:18.098Z,20.65
2019-02-21T02:12:47.208Z,21.15
2019-02-21T02:15:18.103Z,21.82
2019-02-21T02:17:47.482Z,22.37
2019-02-21T02:20:21.129Z,20.25
2019-02-21T02:22:50.058Z,22.10
2019-02-21T02:25:25.169Z,23.10
2019-02-21T02:27:54.197Z,20.90
2019-02-21T02:30:31.065Z,20.23
2019-02-21T02:33:05.964Z,21.60
2019-02-21T02:35:34.786Z,20.10
2019-02-21T02:38:05.655Z,20.72
2019-02-21T02:40:34.461Z,20.05
2019-02-21T02:43:03.367Z,20.80
2019-02-21T02:45:32.596Z,19.27
2019-02-21T02:48:01.694Z,19.20
2019-02-21T02:50:30.749Z,19.50
2019-02-21T02:53:00.036Z,20.60
2019-02-21T02:55:28.943Z,18.42
2019-02-21T02:57:57.693Z,21.07
2019-02-21T03:00:29.646Z,20.60
2019-02-21T03:02:58.478Z,20.70
2019-02-21T03:05:27.254Z,19.52
2019-02-21T03:07:59.871Z,19.50
2019-02-21T03:10:28.635Z,19.80
2019-02-21T03:13:13.591Z,19.60
2019-02-21T03:15:42.645Z,15.83
2019-02-21T03:18:26.428Z,17.77
2019-02-21T03:20:57.288Z,18.07
2019-02-21T03:23:32.290Z,18.57
2019-02-21T03:26:01.192Z,18.48
2019-02-21T03:28:30.083Z,17.48
2019-02-21T03:30:58.868Z,18.05
2019-02-21T03:33:27.694Z,17.55
2019-02-21T03:35:56.626Z,17.40
2019-02-21T03:38:25.459Z,17.50
2019-02-21T03:40:54.372Z,17.02
2019-02-21T03:43:23.309Z,18.73
2019-02-21T03:45:52.325Z,18.62
2019-02-21T03:48:21.182Z,17.20
2019-02-21T03:50:50.071Z,17.50
2019-02-21T03:53:19.090Z,19.00
2019-02-21T03:55:48.060Z,18.65
2019-02-21T03:58:16.966Z,19.73
2019-02-21T04:00:45.864Z,18.98
2019-02-21T04:03:14.657Z,20.85
2019-02-21T04:05:43.420Z,18.35
2019-02-21T04:08:13.141Z,17.30
2019-02-21T04:10:42.473Z,17.85
2019-02-21T04:13:15.227Z,17.67
2019-02-21T04:15:44.249Z,17.67
2019-02-21T04:18:13.204Z,17.40
2019-02-21T04:20:42.385Z,18.83
2019-02-21T04:23:11.604Z,18.62
2019-02-21T04:25:40.526Z,18.35
2019-02-21T04:28:09.314Z,18.00
2019-02-21T04:30:38.354Z,18.02
2019-02-21T04:33:11.218Z,17.30
2019-02-21T04:35:40.119Z,16.75
2019-02-21T04:38:08.998Z,15.63
2019-02-21T04:40:37.748Z,16.82
2019-02-21T04:43:06.659Z,15.43
2019-02-21T04:45:35.474Z,15.30
2019-02-21T04:48:04.939Z,15.63
2019-02-21T04:50:34.229Z,16.00
2019-02-21T04:53:03.660Z,16.35
2019-02-21T04:55:32.551Z,15.72
2019-02-21T04:58:01.356Z,17.20
2019-02-21T05:00:30.817Z,17.07
2019-02-21T05:03:01.626Z,18.07
2019-02-21T05:05:30.473Z,19.40
2019-02-21T05:07:59.521Z,18.60
2019-02-21T05:10:28.380Z,20.63
2019-02-21T05:12:57.583Z,20.20
2019-02-21T05:15:26.465Z,20.10
2019-02-21T05:17:55.368Z,20.27
2019-02-21T05:20:24.197Z,18.73
2019-02-21T05:22:53.283Z,19.27
2019-02-21T05:25:22.084Z,19.70
2019-02-21T05:28:08.992Z,20.20
2019-02-21T05:30:37.885Z,20.82
2019-02-21T05:33:25.820Z,19.17
2019-02-21T05:36:22.639Z,21.00
2019-02-21T05:39:09.627Z,22.10
2019-02-21T05:41:47.906Z,21.13
2019-02-21T05:44:33.806Z,22.57
2019-02-21T05:47:12.802Z,22.50
2019-02-21T05:49:48.447Z,25.27
2019-02-21T05:52:28.291Z,23.90
2019-02-21T05:55:05.811Z,23.57
2019-02-21T05:57:47.080Z,25.23
2019-02-21T06:00:37.097Z,25.70
2019-02-21T06:03:19.404Z,23.33
2019-02-21T06:06:11.523Z,26.13
2019-02-21T06:08:45.712Z,26.03
2019-02-21T06:11:45.900Z,23.43
2019-02-21T06:14:28.084Z,27.00
2019-02-21T06:17:22.219Z,25.70
2019-02-21T06:20:10.198Z,25.77
2019-02-21T06:23:01.636Z,25.33
2019-02-21T06:25:51.933Z,24.13
2019-02-21T06:28:28.435Z,24.60
2019-02-21T06:31:15.836Z,23.07
2019-02-21T06:33:44.677Z,24.67
2019-02-21T06:36:13.487Z,23.33
2019-02-21T06:38:42.712Z,24.10
2019-02-21T06:41:11.767Z,23.40
2019-02-21T06:43:40.535Z,22.33
2019-02-21T06:46:09.381Z,23.00
2019-02-21T06:48:38.299Z,22.23
2019-02-21T06:51:07.410Z,23.10
2019-02-21T06:53:36.880Z,20.40
2019-02-21T06:56:05.655Z,22.27
2019-02-21T06:58:34.483Z,23.10
2019-02-21T07:01:03.334Z,21.90
2019-02-21T07:03:32.201Z,22.10
2019-02-21T07:06:01.171Z,22.00
2019-02-21T07:08:29.989Z,22.70
2019-02-21T07:11:06.251Z,23.83
2019-02-21T07:13:29.804Z,22.10
2019-02-21T07:15:58.741Z,22.50
2019-02-21T07:18:28.886Z,21.03
2019-02-21T07:20:57.887Z,22.43
2019-02-21T07:23:27.466Z,22.87
2019-02-21T07:26:02.772Z,23.47
2019-02-21T07:28:31.959Z,23.20
2019-02-21T07:31:01.116Z,23.80
2019-02-21T07:33:29.989Z,23.90
2019-02-21T07:35:59.181Z,23.63
2019-02-21T07:38:28.033Z,22.63
2019-02-21T07:40:56.835Z,23.43
2019-02-21T07:43:25.761Z,25.20
2019-02-21T07:45:55.041Z,23.40
2019-02-21T07:48:23.953Z,24.37
2019-02-21T07:50:52.830Z,23.43
2019-02-21T07:53:21.933Z,24.77
2019-02-21T07:55:51.228Z,24.97
2019-02-21T07:58:20.020Z,26.87
2019-02-21T08:00:49.162Z,24.23
2019-02-21T08:03:29.459Z,24.40
2019-02-21T08:05:48.561Z,24.00
2019-02-21T08:08:17.843Z,25.37
2019-02-21T08:10:47.320Z,27.43
2019-02-21T08:13:16.437Z,26.60
2019-02-21T08:15:45.254Z,28.67
2019-02-21T08:18:14.367Z,28.03
2019-02-21T08:20:43.592Z,29.03
2019-02-21T08:23:12.366Z,25.30
2019-02-21T08:25:41.307Z,29.00
2019-02-21T08:28:10.758Z,27.03
2019-02-21T08:30:39.634Z,27.90
2019-02-21T08:33:27.727Z,23.87
2019-02-21T08:35:57.906Z,28.63
2019-02-21T08:38:26.845Z,31.03
2019-02-21T08:40:57.161Z,30.37
2019-02-21T08:43:26.587Z,30.00
2019-02-21T08:45:57.457Z,27.23
2019-02-21T08:48:25.928Z,28.87
2019-02-21T08:50:55.519Z,26.03
2019-02-21T08:53:24.804Z,32.33
2019-02-21T08:55:55.916Z,28.83
2019-02-21T08:58:24.812Z,28.37
2019-02-21T09:00:54.607Z,27.90
2019-02-21T09:03:23.649Z,27.57
2019-02-21T09:05:52.776Z,25.43
2019-02-21T09:08:32.703Z,31.23
2019-02-21T09:10:52.830Z,30.40
2019-02-21T09:13:23.873Z,28.80
2019-02-21T09:15:52.478Z,30.17
2019-02-21T09:18:21.468Z,28.70
2019-02-21T09:20:50.323Z,29.80
2019-02-21T09:23:19.173Z,31.87
2019-02-21T09:25:49.623Z,33.97
2019-02-21T09:28:18.704Z,32.17
2019-02-21T09:30:47.816Z,31.17
2019-02-21T09:33:17.779Z,27.73
2019-02-21T09:35:47.527Z,29.70
2019-02-21T09:38:16.388Z,33.67
2019-02-21T09:40:45.258Z,32.13
2019-02-21T09:43:14.412Z,29.33
2019-02-21T09:45:43.314Z,30.07
2019-02-21T09:48:12.232Z,31.97
2019-02-21T09:50:41.071Z,31.50
2019-02-21T09:53:10.264Z,32.60
2019-02-21T09:55:39.625Z,29.37
2019-02-21T09:58:09.142Z,31.50
2019-02-21T10:00:38.364Z,29.10
2019-02-21T10:03:08.411Z,28.90
2019-02-21T10:05:37.191Z,29.30
2019-02-21T10:08:05.994Z,34.53
2019-02-21T10:10:34.879Z,33.23
2019-02-21T10:13:03.635Z,32.90
2019-02-21T10:15:32.356Z,28.27
2019-02-21T10:18:01.207Z,32.67
2019-02-21T10:20:30.053Z,33.10
2019-02-21T10:23:00.116Z,35.17
2019-02-21T10:25:29.014Z,33.07
2019-02-21T10:27:59.016Z,33.90
2019-02-21T10:30:28.627Z,32.90
2019-02-21T10:32:57.445Z,29.47
2019-02-21T10:35:26.226Z,31.10
2019-02-21T10:37:55.354Z,31.30
2019-02-21T10:40:24.516Z,30.30
2019-02-21T10:42:53.405Z,30.07
2019-02-21T10:45:22.708Z,29.70
2019-02-21T10:47:51.602Z,33.17
2019-02-21T10:50:20.702Z,30.83
2019-02-21T10:52:49.736Z,29.20
2019-02-21T10:55:18.803Z,33.27
2019-02-21T10:57:47.951Z,30.17
2019-02-21T11:00:21.954Z,31.27
2019-02-21T11:02:50.867Z,31.70
2019-02-21T11:05:20.003Z,30.90
2019-02-21T11:07:48.852Z,29.23
2019-02-21T11:10:20.860Z,29.77
2019-02-21T11:12:49.819Z,29.37
2019-02-21T11:15:18.775Z,26.43
2019-02-21T11:17:47.903Z,23.37
2019-02-21T11:20:17.225Z,28.40
2019-02-21T11:22:46.142Z,26.90
2019-02-21T11:25:15.000Z,26.90
2019-02-21T11:27:44.245Z,28.20
2019-02-21T11:30:16.867Z,27.80
2019-02-21T11:32:45.812Z,27.10
2019-02-21T11:35:14.839Z,29.23
2019-02-21T11:37:46.860Z,26.57
2019-02-21T11:40:15.317Z,28.50
2019-02-21T11:42:44.281Z,27.17
2019-02-21T11:45:14.878Z,27.23
2019-02-21T11:47:44.004Z,25.37
2019-02-21T11:50:14.571Z,25.03
2019-02-21T11:52:43.883Z,25.80
2019-02-21T11:55:15.434Z,29.13
2019-02-21T11:57:44.299Z,28.40
2019-02-21T12:00:16.209Z,24.80
2019-02-21T12:02:45.083Z,23.73
2019-02-21T12:05:17.397Z,29.03
2019-02-21T12:07:44.967Z,27.67
2019-02-21T12:10:13.174Z,21.60
2019-02-21T12:12:42.363Z,29.07
2019-02-21T12:15:11.578Z,26.57
2019-02-21T12:17:42.672Z,27.20
2019-02-21T12:20:12.715Z,27.13
2019-02-21T12:22:41.591Z,24.30
2019-02-21T12:25:12.163Z,27.83
2019-02-21T12:27:41.124Z,24.40
2019-02-21T12:30:12.369Z,28.40
2019-02-21T12:32:41.428Z,32.53
2019-02-21T12:35:10.511Z,26.90
2019-02-21T12:37:39.999Z,28.10
2019-02-21T12:40:10.902Z,30.07
2019-02-21T12:42:39.782Z,27.33
2019-02-21T12:45:10.939Z,28.70
2019-02-21T12:47:49.576Z,27.50
2019-02-21T12:50:10.988Z,29.43
2019-02-21T12:52:39.987Z,28.53
2019-02-21T12:55:09.145Z,27.30
2019-02-21T12:57:37.927Z,24.97
2019-02-21T13:00:10.790Z,29.17
2019-02-21T13:02:39.911Z,30.00
2019-02-21T13:05:08.839Z,28.03
2019-02-21T13:07:37.944Z,28.40
2019-02-21T13:10:09.492Z,27.40
2019-02-21T13:12:38.352Z,30.10
2019-02-21T13:15:08.542Z,29.77
2019-02-21T13:17:37.718Z,28.90
2019-02-21T13:20:07.426Z,27.80
2019-02-21T13:22:36.205Z,29.17
2019-02-21T13:25:05.894Z,26.73
2019-02-21T13:27:34.859Z,26.50
2019-02-21T13:30:04.641Z,26.33
2019-02-21T13:32:33.568Z,25.97
2019-02-21T13:35:02.462Z,26.70
2019-02-21T13:37:31.362Z,27.17
2019-02-21T13:40:00.665Z,28.43
2019-02-21T13:42:29.712Z,27.73
2019-02-21T13:44:58.941Z,29.43
2019-02-21T13:47:28.218Z,27.30
2019-02-21T13:49:57.279Z,29.90
2019-02-21T13:52:26.237Z,27.70
2019-02-21T13:54:55.083Z,32.30
2019-02-21T13:57:24.107Z,29.80
2019-02-21T13:59:52.883Z,26.50
2019-02-21T14:02:22.074Z,27.70
2019-02-21T14:04:51.135Z,29.70
2019-02-21T14:07:19.979Z,28.27
2019-02-21T14:09:48.824Z,28.23
2019-02-21T14:12:17.628Z,29.60
2019-02-21T14:14:46.455Z,30.93
2019-02-21T14:17:15.439Z,29.30
2019-02-21T14:19:44.211Z,30.13
2019-02-21T14:22:13.296Z,27.27
2019-02-21T14:24:42.236Z,30.20
2019-02-21T14:27:11.056Z,30.97
2019-02-21T14:29:39.959Z,26.87
2019-02-21T14:32:09.171Z,31.60
2019-02-21T14:34:38.073Z,31.90
2019-02-21T14:37:06.956Z,32.83
2019-02-21T14:39:35.759Z,31.47
2019-02-21T14:42:04.615Z,30.00
2019-02-21T14:44:33.553Z,30.50
2019-02-21T14:47:02.289Z,30.50
2019-02-21T14:49:31.476Z,30.47
2019-02-21T14:52:01.960Z,30.23
2019-02-21T14:54:31.065Z,30.50
2019-02-21T14:56:59.861Z,29.90
2019-02-21T14:59:28.714Z,32.90
2019-02-21T15:01:57.731Z,30.07
2019-02-21T15:04:26.589Z,31.37
2019-02-21T15:06:55.749Z,30.73
2019-02-21T15:09:24.595Z,31.17
2019-02-21T15:11:54.413Z,32.00
2019-02-21T15:14:23.192Z,31.83
2019-02-21T15:16:52.403Z,29.37
2019-02-21T15:19:21.287Z,32.00
2019-02-21T15:21:51.183Z,30.73
2019-02-21T15:24:19.999Z,29.40
2019-02-21T15:26:48.791Z,28.67
2019-02-21T15:29:17.675Z,28.80
2019-02-21T15:31:46.498Z,32.43
2019-02-21T15:34:15.366Z,30.40
2019-02-21T15:36:44.119Z,31.03
2019-02-21T15:39:12.993Z,30.07
2019-02-21T15:41:41.976Z,29.67
2019-02-21T15:44:10.812Z,26.70
2019-02-21T15:46:39.598Z,29.90
2019-02-21T15:49:08.560Z,30.60
2019-02-21T15:51:37.680Z,30.20
2019-02-21T15:54:06.641Z,31.00
2019-02-21T15:56:35.466Z,31.37
2019-02-21T15:59:04.369Z,30.50
2019-02-21T16:01:33.252Z,29.00
2019-02-21T16:04:02.148Z,29.07
2019-02-21T16:06:31.032Z,31.00
2019-02-21T16:09:00.921Z,34.37
2019-02-21T16:11:29.780Z,29.27
2019-02-21T16:14:03.007Z,29.97
2019-02-21T16:16:29.784Z,31.10
2019-02-21T16:18:59.009Z,32.43
2019-02-21T16:21:28.214Z,28.60
2019-02-21T16:23:57.074Z,25.53
2019-02-21T16:26:26.409Z,29.13
2019-02-21T16:28:55.207Z,27.60
2019-02-21T16:31:24.432Z,26.57
2019-02-21T16:33:53.339Z,29.47
2019-02-21T16:36:22.112Z,27.67
2019-02-21T16:38:51.492Z,26.80
2019-02-21T16:41:21.937Z,29.60
2019-02-21T16:43:51.763Z,28.80
2019-02-21T16:46:21.947Z,27.63
2019-02-21T16:48:52.179Z,29.10
2019-02-21T16:51:23.838Z,27.83
2019-02-21T16:53:52.658Z,28.70
2019-02-21T16:56:21.469Z,28.20
2019-02-21T16:58:50.390Z,27.80
2019-02-21T17:01:19.346Z,28.63
2019-02-21T17:03:48.620Z,28.20
2019-02-21T17:06:17.862Z,29.20
2019-02-21T17:08:46.794Z,28.70
2019-02-21T17:11:15.868Z,28.43
2019-02-21T17:13:44.602Z,28.60
2019-02-21T17:16:13.366Z,27.33
2019-02-21T17:18:42.699Z,28.03
2019-02-21T17:21:12.079Z,27.80
2019-02-21T17:23:40.993Z,25.20
2019-02-21T17:26:09.939Z,27.47
2019-02-21T17:28:39.113Z,26.30
2019-02-21T17:31:08.007Z,26.37
2019-02-21T17:33:37.316Z,23.90
2019-02-21T17:36:06.688Z,23.40
2019-02-21T17:38:35.992Z,23.30
2019-02-21T17:41:05.279Z,24.83
2019-02-21T17:43:34.111Z,24.40
2019-02-21T17:46:03.019Z,24.20
2019-02-21T17:48:32.475Z,23.80
2019-02-21T17:51:01.296Z,23.83
2019-02-21T17:53:30.191Z,24.13
2019-02-21T17:55:59.133Z,23.27
2019-02-21T17:58:28.107Z,25.00
2019-02-21T18:00:57.183Z,23.90
2019-02-21T18:03:26.050Z,23.10
2019-02-21T18:05:56.039Z,24.73
2019-02-21T18:08:25.069Z,23.00
2019-02-21T18:10:53.811Z,23.27
2019-02-21T18:13:22.660Z,24.07
2019-02-21T18:15:51.904Z,23.80
2019-02-21T18:18:20.704Z,24.00
2019-02-21T18:20:49.565Z,24.40
2019-02-21T18:23:18.403Z,24.47
2019-02-21T18:25:51.094Z,23.57
2019-02-21T18:28:19.937Z,23.60
2019-02-21T18:30:48.768Z,24.27
2019-02-21T18:33:18.017Z,25.50
2019-02-21T18:35:47.093Z,24.60
2019-02-21T18:38:16.003Z,23.43
2019-02-21T18:40:45.299Z,24.57
2019-02-21T18:43:14.260Z,24.77
2019-02-21T18:45:43.288Z,22.80
2019-02-21T18:48:13.310Z,25.27
2019-02-21T18:50:42.540Z,28.60
2019-02-21T18:53:11.448Z,27.70
2019-02-21T18:55:40.284Z,24.00
2019-02-21T18:58:09.139Z,26.30
2019-02-21T19:00:38.275Z,24.90
2019-02-21T19:03:07.186Z,26.23
2019-02-21T19:05:36.538Z,22.20
2019-02-21T19:08:06.010Z,24.67
2019-02-21T19:10:35.018Z,22.77
2019-02-21T19:13:04.439Z,23.53
2019-02-21T19:15:33.278Z,20.80
2019-02-21T19:18:02.571Z,22.43
2019-02-21T19:20:31.566Z,17.37
2019-02-21T19:23:00.366Z,20.20
2019-02-21T19:25:29.655Z,21.53
2019-02-21T19:27:59.781Z,21.00
2019-02-21T19:30:33.121Z,22.23
2019-02-21T19:33:01.992Z,21.70
2019-02-21T19:35:32.984Z,21.27
2019-02-21T19:38:09.760Z,19.10
2019-02-21T19:40:33.193Z,18.70
2019-02-21T19:43:02.119Z,21.20
2019-02-21T19:45:31.529Z,20.90
2019-02-21T19:48:00.580Z,21.50
2019-02-21T19:50:29.610Z,18.50
2019-02-21T19:52:58.519Z,21.07
2019-02-21T19:55:27.492Z,19.37
2019-02-21T19:57:56.346Z,21.13
2019-02-21T20:00:27.627Z,21.10
2019-02-21T20:02:56.379Z,19.07
2019-02-21T20:05:25.177Z,21.70
2019-02-21T20:07:54.020Z,23.63
2019-02-21T20:10:23.110Z,23.90
2019-02-21T20:12:52.080Z,22.47
2019-02-21T20:15:21.497Z,24.40
2019-02-21T20:17:52.605Z,22.73
2019-02-21T20:20:21.475Z,20.87
2019-02-21T20:22:50.259Z,23.07
2019-02-21T20:25:19.427Z,24.50
2019-02-21T20:27:48.335Z,23.13
2019-02-21T20:30:17.487Z,23.40
2019-02-21T20:32:46.440Z,25.40
2019-02-21T20:35:16.031Z,20.93
2019-02-21T20:37:45.039Z,23.30
2019-02-21T20:40:14.338Z,24.17
2019-02-21T20:42:43.495Z,22.77
2019-02-21T20:45:12.509Z,25.03
2019-02-21T20:47:41.490Z,25.57
2019-02-21T20:50:10.712Z,22.70
2019-02-21T20:52:39.773Z,19.67
2019-02-21T20:55:09.556Z,24.47
2019-02-21T20:57:38.518Z,24.20
2019-02-21T21:00:09.481Z,25.60
2019-02-21T21:02:38.384Z,23.90
2019-02-21T21:05:07.273Z,25.40
2019-02-21T21:07:36.219Z,23.27
2019-02-21T21:10:07.822Z,23.87
2019-02-21T21:12:36.676Z,22.27
2019-02-21T21:15:05.872Z,24.83
2019-02-21T21:17:34.691Z,23.03
2019-02-21T21:20:03.711Z,24.47
2019-02-21T21:22:32.584Z,22.43
2019-02-21T21:25:01.618Z,25.77
2019-02-21T21:27:30.489Z,20.40
2019-02-21T21:29:59.395Z,24.67
2019-02-21T21:32:29.685Z,25.20
2019-02-21T21:34:58.605Z,25.23
2019-02-21T21:37:27.771Z,22.80
2019-02-21T21:39:56.825Z,25.33
2019-02-21T21:42:25.918Z,25.30
2019-02-21T21:44:54.819Z,24.13
2019-02-21T21:47:23.724Z,23.57
2019-02-21T21:49:52.890Z,20.93
2019-02-21T21:52:22.588Z,18.47
2019-02-21T21:54:51.444Z,23.93
2019-02-21T21:57:20.296Z,26.00
2019-02-21T21:59:49.315Z,24.77
2019-02-21T22:02:18.134Z,17.20
2019-02-21T22:04:47.058Z,24.13
2019-02-21T22:07:16.574Z,21.17
2019-02-21T22:09:45.494Z,25.17
2019-02-21T22:12:14.285Z,25.00
2019-02-21T22:14:43.188Z,26.33
2019-02-21T22:17:12.089Z,23.53
2019-02-21T22:19:41.027Z,25.07
2019-02-21T22:22:10.253Z,25.57
2019-02-21T22:24:39.054Z,24.37
2019-02-21T22:27:07.856Z,27.37
2019-02-21T22:29:36.975Z,19.73
2019-02-21T22:32:05.943Z,27.23
2019-02-21T22:34:34.817Z,25.90
2019-02-21T22:37:03.873Z,27.07
2019-02-21T22:39:32.716Z,30.03
2019-02-21T22:42:01.648Z,27.63
2019-02-21T22:44:30.452Z,26.40
2019-02-21T22:46:59.243Z,30.30
2019-02-21T22:49:28.353Z,26.30
2019-02-21T22:51:57.162Z,28.00
2019-02-21T22:54:26.317Z,26.70
2019-02-21T22:56:55.265Z,29.30
2019-02-21T22:59:24.191Z,23.73
2019-02-21T23:01:54.179Z,27.00
2019-02-21T23:04:54.104Z,28.03
2019-02-21T23:07:51.851Z,24.60
2019-02-21T23:10:20.773Z,26.50
2019-02-21T23:12:49.862Z,26.77
2019-02-21T23:15:19.008Z,25.83
2019-02-21T23:17:47.971Z,24.90
2019-02-21T23:20:16.837Z,26.40
2019-02-21T23:22:45.685Z,24.30
2019-02-21T23:25:14.566Z,22.70
2019-02-21T23:27:43.408Z,27.23
2019-02-21T23:30:13.360Z,27.10
2019-02-21T23:32:42.304Z,23.53
2019-02-21T23:35:16.714Z,23.27
2019-02-21T23:37:45.605Z,22.83
2019-02-21T23:40:14.703Z,23.40
2019-02-21T23:42:43.880Z,26.40
2019-02-21T23:45:12.754Z,24.80
2019-02-21T23:47:49.345Z,27.80
2019-02-21T23:50:12.193Z,26.90
2019-02-21T23:52:41.255Z,26.10
2019-02-21T23:55:10.097Z,25.70
2019-02-21T23:57:39.124Z,25.73
